• Join FlightAware (Why Join?)
  • Login
  • US Flag 
12:34PM EDT


 

Airport Tracker/Info


-or-


 

Live Flight TrackerFlight Track Log ✈ DAL6057 ✈ 17-May-2013 ✈ KCMH - KDTW

Flight Track Log - Related Links

Times and Time Zones

All times are in EDT time to prevent confusion due to time zone crossing. See the DAL6057 flight status page for this flight to view local times or setup timezone preferences in your user account.

Time Position Orientation Groundspeed Altitude Reporting Facility
EDT Latitude Longitude Course Direction KTS MPH feet Rate Location/Type
06:28AM 39.9922 -82.8764 21° North 163 188 1,300  Level Indianapolis Center
06:29AM 39.9842 -82.8075 99° East 188 216 3,500 2,400 Climbing Indianapolis Center
06:29AM 40.0047 -82.7525 64° Northeast 226 260 5,900 2,520 Climbing Indianapolis Center
06:31AM 40.3091 -82.6507 29° Northeast  Level FlightAware Approximate
06:31AM 40.0722 -82.7372 10° North 230 265 8,800  Level Indianapolis Center
06:32AM 40.3944 -82.5967 25° Northeast  Level FlightAware Approximate
06:32AM 40.1361 -82.7086 19° North 241 277 11,100  Level Indianapolis Center
06:33AM 40.4823 -82.5505 21° North  Level FlightAware Approximate
06:33AM 40.2108 -82.6778 17° North 280 322 12,600  Level Indianapolis Center
06:34AM 40.3056 -82.6367 18° North 311 358 14,400 1,140 Climbing Indianapolis Center
06:35AM 40.3992 -82.5964 18° North 345 397 15,000 240 Climbing Indianapolis Center
06:36AM 40.4928 -82.5558 18° North 351 404 15,000  Level Indianapolis Center
06:37AM 40.5867 -82.5144 19° North 351 404 15,000  Level Indianapolis Center
06:37AM 40.6369 -82.4903 20° North 343 395 15,000  Level Cleveland Center
06:38AM 40.7253 -82.4489 20° North 343 395 15,000  Level Cleveland Center
06:39AM 40.8175 -82.4103 18° North 343 395 15,000 -60 Level Cleveland Center
06:40AM 40.9078 -82.3689 19° North 343 395 14,900 -60 Descending Cleveland Center
06:41AM 40.9961 -82.3272 20° North 343 395 14,900  Level Cleveland Center
06:42AM 41.0800 -82.2883 19° North 332 382 14,900  Level Cleveland Center
06:43AM 41.1639 -82.2519 18° North 321 369 14,900  Level Cleveland Center
06:44AM 41.2436 -82.2153 19° North 310 357 14,900  Level Cleveland Center
06:45AM 41.3172 -82.1811 19° North 305 351 14,900  Level Cleveland Center
06:46AM 41.3917 -82.2189 339° North 282 325 14,900  Level Cleveland Center
06:47AM 41.4447 -82.3061 309° West 267 307 14,900  Level Cleveland Center
06:48AM 41.4975 -82.3989 307° West 296 341 14,900 -660 Level Cleveland Center
06:49AM 41.5522 -82.4894 309° West 320 368 13,600 -1,320 Descending Cleveland Center
06:50AM 41.5989 -82.5631 310° West 306 352 12,600 -1,320 Descending Cleveland Center
06:50AM 41.6108 -82.5883 302° West 312 359 12,300 -480 Descending Cleveland Center
06:51AM 41.6614 -82.6761 308° West 305 351 12,000 -120 Descending Cleveland Center
06:52AM 41.7142 -82.7583 311° West 302 348 12,100 -300 Climbing Cleveland Center
06:53AM 41.7731 -82.8383 315° West 301 346 11,500 -1,080 Descending Cleveland Center
06:54AM 41.8131 -82.9289 301° West 287 330 10,000 -1,260 Descending Cleveland Center
06:55AM 41.8489 -83.0083 301° West 264 304 9,000 -1,080 Descending Cleveland Center
06:56AM 41.8906 -83.1075 299° West 261 300 7,800 -1,200 Descending Cleveland Center
06:57AM 41.9203 -83.1758 300° West 254 292 6,600 -960 Descending Cleveland Center
06:58AM 41.9558 -83.2553 301° West 254 292 6,000 -600 Descending Cleveland Center
06:59AM 41.9875 -83.3264 301° West 254 292 5,500 -1,200 Descending Cleveland Center
07:00AM 42.0414 -83.4239 307° West 258 297 3,500 -1,740 Descending Cleveland Center